createdAt,value
2022-12-25T00:02:03.683Z,46.00
2022-12-25T00:04:30.430Z,44.60
2022-12-25T00:06:57.323Z,49.38
2022-12-25T00:09:24.095Z,37.90
2022-12-25T00:11:50.833Z,41.45
2022-12-25T00:14:17.687Z,41.83
2022-12-25T00:16:44.685Z,53.85
2022-12-25T00:19:11.474Z,53.15
2022-12-25T00:21:38.460Z,38.65
2022-12-25T00:24:05.725Z,38.05
2022-12-25T00:26:32.554Z,43.90
2022-12-25T00:28:59.398Z,36.45
2022-12-25T00:31:27.263Z,38.75
2022-12-25T00:33:54.202Z,46.63
2022-12-25T00:36:22.372Z,45.85
2022-12-25T00:38:49.203Z,44.05
2022-12-25T00:41:38.930Z,37.13
2022-12-25T00:44:06.688Z,48.85
2022-12-25T00:46:33.754Z,37.63
2022-12-25T00:49:00.938Z,39.08
2022-12-25T00:51:28.058Z,33.83
2022-12-25T00:53:54.831Z,35.13
2022-12-25T00:56:21.702Z,38.00
2022-12-25T00:58:48.587Z,39.65
2022-12-25T01:01:15.574Z,36.38
2022-12-25T01:03:42.570Z,37.60
2022-12-25T01:06:12.776Z,36.65
2022-12-25T01:08:59.750Z,36.50
2022-12-25T01:11:26.575Z,32.03
2022-12-25T01:13:53.422Z,38.17
2022-12-25T01:16:20.405Z,34.15
2022-12-25T01:18:47.344Z,32.28
2022-12-25T01:21:21.031Z,33.92
2022-12-25T01:23:50.746Z,35.70
2022-12-25T01:26:18.789Z,36.35
2022-12-25T01:28:45.877Z,42.53
2022-12-25T01:31:15.203Z,44.40
2022-12-25T01:33:43.427Z,29.63
2022-12-25T01:36:15.888Z,38.95
2022-12-25T01:38:43.901Z,37.50
2022-12-25T01:41:11.956Z,28.27
2022-12-25T01:43:59.237Z,40.45
2022-12-25T01:46:26.097Z,38.15
2022-12-25T01:48:58.460Z,34.92
2022-12-25T01:51:33.506Z,39.83
2022-12-25T01:54:05.341Z,28.27
2022-12-25T01:56:33.938Z,44.55
2022-12-25T01:59:04.263Z,38.90
2022-12-25T02:01:32.407Z,35.63
2022-12-25T02:04:08.160Z,32.00
2022-12-25T02:06:35.658Z,36.55
2022-12-25T02:09:03.154Z,35.67
2022-12-25T02:11:48.830Z,28.67
2022-12-25T02:14:15.745Z,37.85
2022-12-25T02:16:57.292Z,38.75
2022-12-25T02:20:04.055Z,28.40
2022-12-25T02:22:58.822Z,39.05
2022-12-25T02:25:47.208Z,31.80
2022-12-25T02:28:20.227Z,37.22
2022-12-25T02:30:54.732Z,31.13
2022-12-25T02:34:05.597Z,39.13
2022-12-25T02:36:52.267Z,45.78
2022-12-25T02:39:45.795Z,31.60
2022-12-25T02:42:19.557Z,36.00
2022-12-25T02:45:08.180Z,25.75
2022-12-25T02:47:55.457Z,24.80
2022-12-25T02:50:42.982Z,37.90
2022-12-25T02:53:36.528Z,37.00
2022-12-25T02:56:22.707Z,41.55
2022-12-25T02:59:09.131Z,38.28
2022-12-25T03:01:57.034Z,29.17
2022-12-25T03:04:45.303Z,32.53
2022-12-25T03:07:18.513Z,34.92
2022-12-25T03:10:17.892Z,24.40
2022-12-25T03:12:50.471Z,37.92
2022-12-25T03:18:06.969Z,32.03
2022-12-25T03:20:54.079Z,32.25
2022-12-25T03:23:44.265Z,35.75
2022-12-25T03:26:29.892Z,38.35
2022-12-25T03:28:56.598Z,35.35
2022-12-25T03:31:39.671Z,31.92
2022-12-25T03:34:46.204Z,28.05
2022-12-25T03:37:45.115Z,31.20
2022-12-25T03:40:54.280Z,32.78
2022-12-25T03:43:58.817Z,28.67
2022-12-25T03:46:51.399Z,30.95
2022-12-25T03:49:45.669Z,21.75
2022-12-25T03:52:34.679Z,42.50
2022-12-25T03:55:24.945Z,33.20
2022-12-25T03:58:10.149Z,42.10
2022-12-25T04:00:55.374Z,39.60
2022-12-25T04:03:40.652Z,26.95
2022-12-25T04:06:25.967Z,31.60
2022-12-25T04:09:11.244Z,36.22
2022-12-25T04:12:02.201Z,29.40
2022-12-25T04:14:48.377Z,21.77
2022-12-25T04:17:50.486Z,25.20
2022-12-25T04:20:35.610Z,31.35
2022-12-25T04:23:21.084Z,33.15
2022-12-25T04:26:06.480Z,24.17
2022-12-25T04:28:51.972Z,25.55
2022-12-25T04:31:38.895Z,25.15
2022-12-25T04:34:24.710Z,30.67
2022-12-25T04:36:51.438Z,19.88
2022-12-25T04:39:18.360Z,27.35
2022-12-25T04:41:45.127Z,32.75
2022-12-25T04:44:11.939Z,28.63
2022-12-25T04:46:38.828Z,25.55
2022-12-25T04:49:05.652Z,24.95
2022-12-25T04:51:32.333Z,24.50
2022-12-25T04:53:59.060Z,22.75
2022-12-25T04:56:25.885Z,32.42
2022-12-25T04:58:52.910Z,34.95
2022-12-25T05:01:19.878Z,32.63
2022-12-25T05:03:46.869Z,16.13
2022-12-25T05:06:13.741Z,21.60
2022-12-25T05:08:40.501Z,22.15
2022-12-25T05:11:12.999Z,18.63
2022-12-25T05:13:40.456Z,28.17
2022-12-25T05:16:08.879Z,27.17
2022-12-25T05:18:36.258Z,27.80
2022-12-25T05:21:04.041Z,30.77
2022-12-25T05:23:31.824Z,16.52
2022-12-25T05:25:58.603Z,28.33
2022-12-25T05:28:25.420Z,22.92
2022-12-25T05:30:55.922Z,17.02
2022-12-25T05:33:22.664Z,25.27
2022-12-25T05:35:49.577Z,19.35
2022-12-25T05:38:16.430Z,21.17
2022-12-25T05:40:43.308Z,19.15
2022-12-25T05:43:10.192Z,20.65
2022-12-25T05:45:36.938Z,23.58
2022-12-25T05:48:04.138Z,24.60
2022-12-25T05:50:31.117Z,17.33
2022-12-25T05:53:09.004Z,22.38
2022-12-25T05:55:37.817Z,16.85
2022-12-25T05:58:05.591Z,17.08
2022-12-25T06:00:32.660Z,25.48
2022-12-25T06:02:59.582Z,18.58
2022-12-25T06:05:26.976Z,17.85
2022-12-25T06:07:53.760Z,17.42
2022-12-25T06:10:20.672Z,18.88
2022-12-25T06:12:47.669Z,21.75
2022-12-25T06:15:14.593Z,17.20
2022-12-25T06:17:41.503Z,18.92
2022-12-25T06:20:08.856Z,22.50
2022-12-25T06:22:35.608Z,18.33
2022-12-25T06:25:02.434Z,16.05
2022-12-25T06:27:29.294Z,14.55
2022-12-25T06:29:56.780Z,18.27
2022-12-25T06:32:23.542Z,15.90
2022-12-25T06:34:50.592Z,16.58
2022-12-25T06:37:17.440Z,15.10
2022-12-25T06:39:45.842Z,16.65
2022-12-25T06:42:12.645Z,15.68
2022-12-25T06:44:39.418Z,18.95
2022-12-25T06:47:06.430Z,20.13
2022-12-25T06:49:33.425Z,11.32
2022-12-25T06:52:00.147Z,12.57
2022-12-25T06:54:27.406Z,13.98
2022-12-25T06:56:54.433Z,13.43
2022-12-25T06:59:21.328Z,11.98
2022-12-25T07:01:51.314Z,18.33
2022-12-25T07:04:38.074Z,14.30
2022-12-25T07:07:08.967Z,9.68
2022-12-25T07:09:36.425Z,15.05
2022-12-25T07:12:23.855Z,15.80
2022-12-25T07:14:50.710Z,18.20
2022-12-25T07:17:17.822Z,15.88
2022-12-25T07:19:45.743Z,10.23
2022-12-25T07:22:13.337Z,14.07
2022-12-25T07:24:40.183Z,9.93
2022-12-25T07:27:08.331Z,9.85
2022-12-25T07:29:36.679Z,9.27
2022-12-25T07:32:03.587Z,13.68
2022-12-25T07:34:30.408Z,9.65
2022-12-25T07:36:57.258Z,9.07
2022-12-25T07:39:24.161Z,13.23
2022-12-25T07:41:51.306Z,17.10
2022-12-25T07:44:18.574Z,16.58
2022-12-25T07:46:46.010Z,13.52
2022-12-25T07:49:13.044Z,9.98
2022-12-25T07:51:39.861Z,13.82
2022-12-25T07:54:06.883Z,18.33
2022-12-25T07:56:33.757Z,14.40
2022-12-25T07:59:00.630Z,12.23
2022-12-25T08:01:28.550Z,13.90
2022-12-25T08:03:58.021Z,11.82
2022-12-25T08:06:29.877Z,16.00
2022-12-25T08:09:09.076Z,8.73
2022-12-25T08:11:36.349Z,16.27
2022-12-25T08:14:08.989Z,13.57
2022-12-25T08:16:36.223Z,13.95
2022-12-25T08:19:02.974Z,12.30
2022-12-25T08:21:29.757Z,14.57
2022-12-25T08:23:56.852Z,14.50
2022-12-25T08:26:24.968Z,16.08
2022-12-25T08:28:51.722Z,17.23
2022-12-25T08:31:24.916Z,17.45
2022-12-25T08:33:54.475Z,13.70
2022-12-25T08:36:22.024Z,11.93
2022-12-25T08:38:49.293Z,12.10
2022-12-25T08:41:16.522Z,15.82
2022-12-25T08:43:43.442Z,9.82
2022-12-25T08:46:10.505Z,13.18
2022-12-25T08:48:38.055Z,12.77
2022-12-25T08:51:08.145Z,11.02
2022-12-25T08:53:34.901Z,9.88
2022-12-25T08:56:06.452Z,15.57
2022-12-25T08:58:33.944Z,12.55
2022-12-25T09:01:00.830Z,15.52
2022-12-25T09:03:27.876Z,10.73
2022-12-25T09:05:55.259Z,11.13
2022-12-25T09:08:22.340Z,15.18
2022-12-25T09:10:49.613Z,10.50
2022-12-25T09:13:16.828Z,10.70
2022-12-25T09:15:43.698Z,11.23
2022-12-25T09:18:10.764Z,10.82
2022-12-25T09:20:37.692Z,9.40
2022-12-25T09:23:09.917Z,9.77
2022-12-25T09:25:40.287Z,17.70
2022-12-25T09:28:07.271Z,10.90
2022-12-25T09:30:34.088Z,13.02
2022-12-25T09:33:00.872Z,17.83
2022-12-25T09:35:27.842Z,12.13
2022-12-25T09:37:54.628Z,13.77
2022-12-25T09:40:23.069Z,13.30
2022-12-25T09:42:53.105Z,18.33
2022-12-25T09:45:37.765Z,13.88
2022-12-25T09:48:04.733Z,11.48
2022-12-25T09:50:50.308Z,14.75
2022-12-25T09:53:23.836Z,22.73
2022-12-25T09:56:04.318Z,21.58
2022-12-25T09:58:33.917Z,16.33
2022-12-25T10:01:12.713Z,24.73
2022-12-25T10:03:54.261Z,26.75
2022-12-25T10:06:25.764Z,22.80
2022-12-25T10:09:10.676Z,23.98
2022-12-25T10:12:04.490Z,19.10
2022-12-25T10:14:56.276Z,18.75
2022-12-25T10:17:41.661Z,16.33
2022-12-25T10:20:42.251Z,22.77
2022-12-25T10:23:34.516Z,18.08
2022-12-25T10:26:02.690Z,18.75
2022-12-25T10:28:40.606Z,18.95
2022-12-25T10:31:22.745Z,18.48
2022-12-25T10:33:51.905Z,14.32
2022-12-25T10:36:21.442Z,16.98
2022-12-25T10:38:48.805Z,18.67
2022-12-25T10:41:41.636Z,15.70
2022-12-25T10:44:35.201Z,14.85
2022-12-25T10:47:04.020Z,16.67
2022-12-25T10:49:36.259Z,23.08
2022-12-25T10:52:03.951Z,20.38
2022-12-25T10:54:37.519Z,28.27
2022-12-25T10:57:16.192Z,16.15
2022-12-25T10:59:46.103Z,26.90
2022-12-25T11:02:28.151Z,16.23
2022-12-25T11:05:05.372Z,16.60
2022-12-25T11:07:33.642Z,21.60
2022-12-25T11:10:05.660Z,19.13
2022-12-25T11:12:41.715Z,18.02
2022-12-25T11:15:30.165Z,18.85
2022-12-25T11:17:56.956Z,13.85
2022-12-25T11:20:24.595Z,24.42
2022-12-25T11:22:51.632Z,27.88
2022-12-25T11:25:23.965Z,24.33
2022-12-25T11:27:58.672Z,22.35
2022-12-25T11:30:25.701Z,22.77
2022-12-25T11:32:56.223Z,19.00
2022-12-25T11:35:30.994Z,23.48
2022-12-25T11:37:58.241Z,30.92
2022-12-25T11:40:40.228Z,24.35
2022-12-25T11:43:15.909Z,23.20
2022-12-25T11:45:59.664Z,23.77
2022-12-25T11:48:49.969Z,24.58
2022-12-25T11:51:17.752Z,22.50
2022-12-25T11:54:07.916Z,23.30
2022-12-25T11:56:34.808Z,20.80
2022-12-25T11:59:12.467Z,24.73
2022-12-25T12:02:00.133Z,19.13
2022-12-25T12:04:40.270Z,23.55
2022-12-25T12:07:27.442Z,19.27
2022-12-25T12:10:10.748Z,15.20
2022-12-25T12:13:03.083Z,19.75
2022-12-25T12:15:31.082Z,23.80
2022-12-25T12:18:25.659Z,22.20
2022-12-25T12:21:24.749Z,19.58
2022-12-25T12:24:12.063Z,19.15
2022-12-25T12:26:44.197Z,12.32
2022-12-25T12:29:30.115Z,16.65
2022-12-25T12:32:01.828Z,15.95
2022-12-25T12:34:50.158Z,17.27
2022-12-25T12:37:36.290Z,18.13
2022-12-25T12:40:06.453Z,10.52
2022-12-25T12:42:40.146Z,16.75
2022-12-25T12:45:20.257Z,16.30
2022-12-25T12:47:50.830Z,16.80
2022-12-25T12:50:34.410Z,15.90
2022-12-25T12:53:27.415Z,19.88
2022-12-25T12:58:36.653Z,18.17
2022-12-25T13:01:31.544Z,12.98
2022-12-25T13:04:24.984Z,14.30
2022-12-25T13:07:12.542Z,16.27
2022-12-25T13:10:21.157Z,18.45
2022-12-25T13:12:53.248Z,22.17
2022-12-25T13:15:22.895Z,20.63
2022-12-25T13:17:50.232Z,21.55
2022-12-25T13:20:41.685Z,24.65
2022-12-25T13:23:41.013Z,21.08
2022-12-25T13:26:17.863Z,21.52
2022-12-25T13:28:46.815Z,18.75
2022-12-25T13:31:13.744Z,19.20
2022-12-25T13:33:45.107Z,25.05
2022-12-25T13:36:14.429Z,20.35
2022-12-25T13:38:46.056Z,22.90
2022-12-25T13:41:39.597Z,27.00
2022-12-25T13:44:23.151Z,18.15
2022-12-25T13:46:49.992Z,18.80
2022-12-25T13:49:22.560Z,20.08
2022-12-25T13:54:18.045Z,19.52
2022-12-25T13:56:53.958Z,26.25
2022-12-25T13:59:23.157Z,20.17
2022-12-25T14:01:51.360Z,20.35
2022-12-25T14:04:21.221Z,22.45
2022-12-25T14:06:49.500Z,19.50
2022-12-25T14:09:17.089Z,24.15
2022-12-25T14:11:49.556Z,19.83
2022-12-25T14:14:23.217Z,21.73
2022-12-25T14:16:53.599Z,24.30
2022-12-25T14:19:29.429Z,24.65
2022-12-25T14:21:58.935Z,23.17
2022-12-25T14:24:28.098Z,25.20
2022-12-25T14:27:06.809Z,24.00
2022-12-25T14:29:38.851Z,31.08
2022-12-25T14:32:08.052Z,34.35
2022-12-25T14:34:35.273Z,24.83
2022-12-25T14:37:03.349Z,28.67
2022-12-25T14:39:35.120Z,23.05
2022-12-25T14:42:18.225Z,38.10
2022-12-25T14:44:56.692Z,29.77
2022-12-25T14:47:23.947Z,31.05
2022-12-25T14:49:52.861Z,35.13
2022-12-25T14:52:28.003Z,26.83
2022-12-25T14:55:01.269Z,27.27
2022-12-25T14:57:34.449Z,26.48
2022-12-25T15:00:08.019Z,22.10
2022-12-25T15:02:42.999Z,28.92
2022-12-25T15:05:28.634Z,25.25
2022-12-25T15:08:11.141Z,20.30
2022-12-25T15:13:27.571Z,20.80
2022-12-25T15:15:56.764Z,24.73
2022-12-25T15:18:26.176Z,24.83
2022-12-25T15:20:53.402Z,29.45
2022-12-25T15:23:21.678Z,16.15
2022-12-25T15:25:48.785Z,21.88
2022-12-25T15:28:15.519Z,20.63
2022-12-25T15:30:42.572Z,21.13
2022-12-25T15:33:17.515Z,20.80
2022-12-25T15:35:45.016Z,23.92
2022-12-25T15:38:13.038Z,19.67
2022-12-25T15:40:42.833Z,20.45
2022-12-25T15:43:38.938Z,25.42
2022-12-25T15:46:00.988Z,26.50
2022-12-25T15:48:27.825Z,28.48
2022-12-25T15:50:54.783Z,24.05
2022-12-25T15:53:21.508Z,20.80
2022-12-25T15:55:49.297Z,19.95
2022-12-25T15:58:16.214Z,30.00
2022-12-25T16:00:43.042Z,41.97
2022-12-25T16:03:09.994Z,40.63
2022-12-25T16:05:37.061Z,34.35
2022-12-25T16:08:03.840Z,25.02
2022-12-25T16:10:36.615Z,23.35
2022-12-25T16:13:05.415Z,25.17
2022-12-25T16:15:32.130Z,36.05
2022-12-25T16:17:59.184Z,22.55
2022-12-25T16:20:26.060Z,30.13
2022-12-25T16:22:52.921Z,22.13
2022-12-25T16:25:20.256Z,20.27
2022-12-25T16:27:47.503Z,26.20
2022-12-25T16:30:17.462Z,36.35
2022-12-25T16:32:48.066Z,36.65
2022-12-25T16:35:14.886Z,39.05
2022-12-25T16:37:41.641Z,54.15
2022-12-25T16:40:09.794Z,51.47
2022-12-25T16:42:37.790Z,367.63
2022-12-25T16:45:05.334Z,270.67
2022-12-25T16:47:32.205Z,127.28
2022-12-25T16:49:58.873Z,60.60
2022-12-25T16:52:25.736Z,42.03
2022-12-25T16:54:52.515Z,43.70
2022-12-25T16:57:19.485Z,42.67
2022-12-25T16:59:47.718Z,33.20
2022-12-25T17:02:17.064Z,31.88
2022-12-25T17:04:48.601Z,27.85
2022-12-25T17:07:17.090Z,29.25
2022-12-25T17:09:47.807Z,41.85
2022-12-25T17:12:15.364Z,47.70
2022-12-25T17:14:42.200Z,32.40
2022-12-25T17:17:08.994Z,55.72
2022-12-25T17:19:35.842Z,46.22
2022-12-25T17:22:04.908Z,64.65
2022-12-25T17:24:33.485Z,45.30
2022-12-25T17:27:00.309Z,61.45
2022-12-25T17:29:27.064Z,47.22
2022-12-25T17:31:55.844Z,111.82
2022-12-25T17:34:23.190Z,129.90
2022-12-25T17:36:50.032Z,96.75
2022-12-25T17:39:16.728Z,151.05
2022-12-25T17:41:43.630Z,110.95
2022-12-25T17:44:11.135Z,128.30
2022-12-25T17:46:37.979Z,210.88
2022-12-25T17:49:04.987Z,143.07
2022-12-25T17:51:32.035Z,124.38
2022-12-25T17:54:03.303Z,100.72
2022-12-25T17:56:31.151Z,190.80
2022-12-25T17:59:00.292Z,142.57
2022-12-25T18:01:28.496Z,189.50
2022-12-25T18:03:56.014Z,154.68
2022-12-25T18:06:24.634Z,190.38
2022-12-25T18:08:51.889Z,248.18
2022-12-25T18:11:21.986Z,103.28
2022-12-25T18:13:51.823Z,131.20
2022-12-25T18:16:22.095Z,137.65
2022-12-25T18:18:52.321Z,116.35
2022-12-25T18:21:21.907Z,114.13
2022-12-25T18:23:49.368Z,158.27
2022-12-25T18:26:16.526Z,113.97
2022-12-25T18:28:43.958Z,96.78
2022-12-25T18:31:15.768Z,84.97
2022-12-25T18:33:44.657Z,66.73
2022-12-25T18:36:13.474Z,70.60
2022-12-25T18:38:40.523Z,107.45
2022-12-25T18:41:09.134Z,55.92
2022-12-25T18:43:54.413Z,45.13
2022-12-25T18:46:26.815Z,77.53
2022-12-25T18:48:55.795Z,83.38
2022-12-25T18:51:22.832Z,76.30
2022-12-25T18:53:49.645Z,81.15
2022-12-25T18:56:20.678Z,82.90
2022-12-25T18:58:48.313Z,74.93
2022-12-25T19:01:18.311Z,100.47
2022-12-25T19:03:46.149Z,103.65
2022-12-25T19:06:23.631Z,81.45
2022-12-25T19:08:50.686Z,90.88
2022-12-25T19:11:18.609Z,102.03
2022-12-25T19:13:46.020Z,105.63
2022-12-25T19:16:13.768Z,95.78
2022-12-25T19:18:46.605Z,75.25
2022-12-25T19:21:13.461Z,123.75
2022-12-25T19:23:43.965Z,93.70
2022-12-25T19:26:11.585Z,104.30
2022-12-25T19:28:39.788Z,116.68
2022-12-25T19:31:10.706Z,146.15
2022-12-25T19:33:41.070Z,110.95
2022-12-25T19:36:11.048Z,124.00
2022-12-25T19:38:38.414Z,83.63
2022-12-25T19:41:07.170Z,102.47
2022-12-25T19:43:36.494Z,63.08
2022-12-25T19:46:04.521Z,57.67
2022-12-25T19:48:33.074Z,62.85
2022-12-25T19:50:59.905Z,70.03
2022-12-25T19:53:27.077Z,55.13
2022-12-25T19:55:54.653Z,68.32
2022-12-25T19:58:23.496Z,51.92
2022-12-25T20:01:01.468Z,48.90
2022-12-25T20:03:31.959Z,62.03
2022-12-25T20:05:58.779Z,58.20
2022-12-25T20:08:25.541Z,53.47
2022-12-25T20:10:52.746Z,64.65
2022-12-25T20:13:20.389Z,55.30
2022-12-25T20:15:47.351Z,44.58
2022-12-25T20:18:14.304Z,62.33
2022-12-25T20:20:41.162Z,54.85
2022-12-25T20:23:08.025Z,65.07
2022-12-25T20:25:40.919Z,56.20
2022-12-25T20:28:07.926Z,38.95
2022-12-25T20:30:37.671Z,53.17
2022-12-25T20:33:04.493Z,50.35
2022-12-25T20:35:31.294Z,39.38
2022-12-25T20:37:58.174Z,43.45
2022-12-25T20:40:24.945Z,46.40
2022-12-25T20:42:51.731Z,49.92
2022-12-25T20:45:18.426Z,51.40
2022-12-25T20:47:46.342Z,49.42
2022-12-25T20:50:13.213Z,54.22
2022-12-25T20:52:40.060Z,45.60
2022-12-25T20:55:06.904Z,34.28
2022-12-25T20:57:33.825Z,39.13
2022-12-25T21:00:00.646Z,39.75
2022-12-25T21:02:34.500Z,51.53
2022-12-25T21:05:04.917Z,51.35
2022-12-25T21:07:31.668Z,47.83
2022-12-25T21:09:59.377Z,52.80
2022-12-25T21:12:26.185Z,40.13
2022-12-25T21:14:52.933Z,46.00
2022-12-25T21:17:19.729Z,43.17
2022-12-25T21:19:46.590Z,48.63
2022-12-25T21:22:14.439Z,47.88
2022-12-25T21:24:41.320Z,46.85
2022-12-25T21:27:08.915Z,43.47
2022-12-25T21:29:35.632Z,46.88
2022-12-25T21:32:21.145Z,45.67
2022-12-25T21:34:48.188Z,50.63
2022-12-25T21:37:14.856Z,43.40
2022-12-25T21:39:41.639Z,39.67
2022-12-25T21:42:08.372Z,54.28
2022-12-25T21:44:35.111Z,55.70
2022-12-25T21:47:01.928Z,48.65
2022-12-25T21:49:47.484Z,49.35
2022-12-25T21:52:14.160Z,59.72
2022-12-25T21:54:40.872Z,59.53
2022-12-25T21:57:07.568Z,53.92
2022-12-25T21:59:34.387Z,61.72
2022-12-25T22:02:01.256Z,48.03
2022-12-25T22:04:28.108Z,49.42
2022-12-25T22:07:13.591Z,49.08
2022-12-25T22:09:40.283Z,44.20
2022-12-25T22:12:31.990Z,43.40
2022-12-25T22:15:06.384Z,42.95
2022-12-25T22:17:59.901Z,48.72
2022-12-25T22:20:37.797Z,47.53
2022-12-25T22:23:05.092Z,44.42
2022-12-25T22:25:32.223Z,50.10
2022-12-25T22:28:03.182Z,31.58
2022-12-25T22:30:30.034Z,46.33
2022-12-25T22:32:57.330Z,48.13
2022-12-25T22:35:24.421Z,43.63
2022-12-25T22:37:51.419Z,54.50
2022-12-25T22:40:19.928Z,44.85
2022-12-25T22:42:46.965Z,41.22
2022-12-25T22:45:15.170Z,50.60
2022-12-25T22:47:42.045Z,41.80
2022-12-25T22:50:13.031Z,41.05
2022-12-25T22:52:40.355Z,40.42
2022-12-25T22:55:09.115Z,40.10
2022-12-25T22:57:35.947Z,39.03
2022-12-25T23:00:03.014Z,48.33
2022-12-25T23:02:30.042Z,42.67
2022-12-25T23:04:56.932Z,51.58
2022-12-25T23:07:23.876Z,41.88
2022-12-25T23:09:52.427Z,39.60
2022-12-25T23:12:42.169Z,36.65
2022-12-25T23:15:24.333Z,38.22
2022-12-25T23:18:11.022Z,35.95
2022-12-25T23:20:56.653Z,39.53
2022-12-25T23:23:42.437Z,37.33
2022-12-25T23:26:10.046Z,43.97
2022-12-25T23:28:58.552Z,34.28
2022-12-25T23:31:38.203Z,38.67
2022-12-25T23:34:06.532Z,43.38
2022-12-25T23:36:34.170Z,43.63
2022-12-25T23:39:08.541Z,34.80
2022-12-25T23:41:36.385Z,37.05
2022-12-25T23:44:03.108Z,39.72
2022-12-25T23:46:30.004Z,32.83
2022-12-25T23:48:56.780Z,32.58
2022-12-25T23:51:28.945Z,32.83
2022-12-25T23:53:55.900Z,30.95
2022-12-25T23:56:23.224Z,35.50
2022-12-25T23:58:51.931Z,35.28
